sensor_id;sensor_type;location;lat;lon;timestamp;P1;durP1;ratioP1;P2;durP2;ratioP2
10517;SDS011;5307;42.548;22.968;2022-08-20T00:01:05;20.17;;;8.05;;
10517;SDS011;5307;42.548;22.968;2022-08-20T00:03:34;12.70;;;7.97;;
10517;SDS011;5307;42.548;22.968;2022-08-20T00:06:05;9.73;;;7.97;;
10517;SDS011;5307;42.548;22.968;2022-08-20T00:08:35;12.05;;;7.78;;
10517;SDS011;5307;42.548;22.968;2022-08-20T00:11:02;13.35;;;8.45;;
10517;SDS011;5307;42.548;22.968;2022-08-20T00:13:35;13.35;;;8.77;;
10517;SDS011;5307;42.548;22.968;2022-08-20T00:16:05;15.93;;;8.30;;
10517;SDS011;5307;42.548;22.968;2022-08-20T00:18:33;10.57;;;8.63;;
10517;SDS011;5307;42.548;22.968;2022-08-20T00:21:03;10.93;;;8.18;;
10517;SDS011;5307;42.548;22.968;2022-08-20T00:23:31;12.82;;;8.02;;
10517;SDS011;5307;42.548;22.968;2022-08-20T00:25:58;9.75;;;8.20;;
10517;SDS011;5307;42.548;22.968;2022-08-20T00:28:25;11.13;;;8.50;;
10517;SDS011;5307;42.548;22.968;2022-08-20T00:30:51;13.10;;;8.80;;
10517;SDS011;5307;42.548;22.968;2022-08-20T00:33:20;10.10;;;8.95;;
10517;SDS011;5307;42.548;22.968;2022-08-20T00:35:50;11.10;;;8.38;;
10517;SDS011;5307;42.548;22.968;2022-08-20T00:38:21;15.05;;;9.25;;
10517;SDS011;5307;42.548;22.968;2022-08-20T00:40:49;10.02;;;9.02;;
10517;SDS011;5307;42.548;22.968;2022-08-20T00:43:26;10.32;;;8.88;;
10517;SDS011;5307;42.548;22.968;2022-08-20T00:45:55;10.88;;;8.75;;
10517;SDS011;5307;42.548;22.968;2022-08-20T00:48:23;15.05;;;9.23;;
10517;SDS011;5307;42.548;22.968;2022-08-20T00:50:52;11.95;;;8.73;;
10517;SDS011;5307;42.548;22.968;2022-08-20T00:53:24;16.92;;;9.18;;
10517;SDS011;5307;42.548;22.968;2022-08-20T00:55:52;12.98;;;9.15;;
10517;SDS011;5307;42.548;22.968;2022-08-20T00:58:20;13.68;;;9.38;;
10517;SDS011;5307;42.548;22.968;2022-08-20T01:00:47;10.32;;;9.20;;
10517;SDS011;5307;42.548;22.968;2022-08-20T01:03:15;13.75;;;8.82;;
10517;SDS011;5307;42.548;22.968;2022-08-20T01:05:46;15.70;;;9.10;;
10517;SDS011;5307;42.548;22.968;2022-08-20T01:08:17;12.90;;;8.75;;
10517;SDS011;5307;42.548;22.968;2022-08-20T01:10:47;10.77;;;8.35;;
10517;SDS011;5307;42.548;22.968;2022-08-20T01:13:16;11.55;;;8.55;;
10517;SDS011;5307;42.548;22.968;2022-08-20T01:15:46;20.23;;;9.75;;
10517;SDS011;5307;42.548;22.968;2022-08-20T01:18:16;23.50;;;9.68;;
10517;SDS011;5307;42.548;22.968;2022-08-20T01:20:47;20.52;;;9.52;;
10517;SDS011;5307;42.548;22.968;2022-08-20T01:23:20;20.33;;;9.07;;
10517;SDS011;5307;42.548;22.968;2022-08-20T01:25:57;12.32;;;9.07;;
10517;SDS011;5307;42.548;22.968;2022-08-20T01:28:29;14.90;;;9.02;;
10517;SDS011;5307;42.548;22.968;2022-08-20T01:31:00;15.07;;;9.45;;
10517;SDS011;5307;42.548;22.968;2022-08-20T01:33:27;15.43;;;9.65;;
10517;SDS011;5307;42.548;22.968;2022-08-20T01:35:56;11.00;;;8.88;;
10517;SDS011;5307;42.548;22.968;2022-08-20T01:38:23;10.30;;;8.27;;
10517;SDS011;5307;42.548;22.968;2022-08-20T01:41:06;12.10;;;8.40;;
10517;SDS011;5307;42.548;22.968;2022-08-20T01:43:50;14.80;;;9.00;;
10517;SDS011;5307;42.548;22.968;2022-08-20T01:46:21;18.30;;;9.55;;
10517;SDS011;5307;42.548;22.968;2022-08-20T01:48:49;16.73;;;8.50;;
10517;SDS011;5307;42.548;22.968;2022-08-20T01:51:17;10.20;;;8.75;;
10517;SDS011;5307;42.548;22.968;2022-08-20T01:53:46;9.55;;;8.55;;
10517;SDS011;5307;42.548;22.968;2022-08-20T01:56:18;12.32;;;9.10;;
10517;SDS011;5307;42.548;22.968;2022-08-20T01:58:48;13.32;;;8.73;;
10517;SDS011;5307;42.548;22.968;2022-08-20T02:01:23;10.50;;;8.88;;
10517;SDS011;5307;42.548;22.968;2022-08-20T02:03:52;10.95;;;8.30;;
10517;SDS011;5307;42.548;22.968;2022-08-20T02:06:20;11.93;;;8.40;;
10517;SDS011;5307;42.548;22.968;2022-08-20T02:08:50;11.40;;;9.68;;
10517;SDS011;5307;42.548;22.968;2022-08-20T02:11:20;13.32;;;9.25;;
10517;SDS011;5307;42.548;22.968;2022-08-20T02:13:49;12.43;;;9.27;;
10517;SDS011;5307;42.548;22.968;2022-08-20T02:16:17;11.95;;;9.07;;
10517;SDS011;5307;42.548;22.968;2022-08-20T02:18:45;15.70;;;9.50;;
10517;SDS011;5307;42.548;22.968;2022-08-20T02:21:14;14.70;;;9.75;;
10517;SDS011;5307;42.548;22.968;2022-08-20T02:23:41;14.27;;;9.73;;
10517;SDS011;5307;42.548;22.968;2022-08-20T02:29:31;14.32;;;10.23;;
10517;SDS011;5307;42.548;22.968;2022-08-20T02:31:59;13.70;;;9.85;;
10517;SDS011;5307;42.548;22.968;2022-08-20T02:34:26;15.30;;;10.27;;
10517;SDS011;5307;42.548;22.968;2022-08-20T02:36:53;13.45;;;9.38;;
10517;SDS011;5307;42.548;22.968;2022-08-20T02:39:20;15.27;;;9.45;;
10517;SDS011;5307;42.548;22.968;2022-08-20T02:41:47;16.55;;;9.35;;
10517;SDS011;5307;42.548;22.968;2022-08-20T02:44:14;13.85;;;10.50;;
10517;SDS011;5307;42.548;22.968;2022-08-20T02:46:46;12.48;;;9.20;;
10517;SDS011;5307;42.548;22.968;2022-08-20T02:49:15;14.55;;;9.82;;
10517;SDS011;5307;42.548;22.968;2022-08-20T02:51:46;12.63;;;9.30;;
10517;SDS011;5307;42.548;22.968;2022-08-20T02:54:14;16.55;;;10.02;;
10517;SDS011;5307;42.548;22.968;2022-08-20T02:56:41;11.20;;;9.00;;
10517;SDS011;5307;42.548;22.968;2022-08-20T02:59:08;11.15;;;9.02;;
10517;SDS011;5307;42.548;22.968;2022-08-20T03:01:35;11.93;;;8.90;;
10517;SDS011;5307;42.548;22.968;2022-08-20T03:04:04;13.52;;;9.70;;
10517;SDS011;5307;42.548;22.968;2022-08-20T03:06:31;13.45;;;9.45;;
10517;SDS011;5307;42.548;22.968;2022-08-20T03:08:58;11.85;;;9.55;;
10517;SDS011;5307;42.548;22.968;2022-08-20T03:11:25;13.13;;;9.43;;
10517;SDS011;5307;42.548;22.968;2022-08-20T03:13:52;11.68;;;9.70;;
10517;SDS011;5307;42.548;22.968;2022-08-20T03:16:19;19.10;;;10.30;;
10517;SDS011;5307;42.548;22.968;2022-08-20T03:18:46;11.88;;;9.55;;
10517;SDS011;5307;42.548;22.968;2022-08-20T03:21:14;16.35;;;9.60;;
10517;SDS011;5307;42.548;22.968;2022-08-20T03:23:42;16.15;;;9.75;;
10517;SDS011;5307;42.548;22.968;2022-08-20T03:26:10;14.88;;;10.57;;
10517;SDS011;5307;42.548;22.968;2022-08-20T03:28:39;16.48;;;10.38;;
10517;SDS011;5307;42.548;22.968;2022-08-20T03:31:06;15.65;;;10.27;;
10517;SDS011;5307;42.548;22.968;2022-08-20T03:33:33;13.63;;;10.27;;
10517;SDS011;5307;42.548;22.968;2022-08-20T03:36:03;13.10;;;10.15;;
10517;SDS011;5307;42.548;22.968;2022-08-20T03:38:32;14.63;;;10.15;;
10517;SDS011;5307;42.548;22.968;2022-08-20T03:41:00;15.15;;;10.07;;
10517;SDS011;5307;42.548;22.968;2022-08-20T03:43:27;14.00;;;10.15;;
10517;SDS011;5307;42.548;22.968;2022-08-20T03:45:55;14.50;;;10.38;;
10517;SDS011;5307;42.548;22.968;2022-08-20T03:48:22;16.38;;;10.35;;
10517;SDS011;5307;42.548;22.968;2022-08-20T03:50:49;18.17;;;10.90;;
10517;SDS011;5307;42.548;22.968;2022-08-20T03:53:17;26.45;;;11.25;;
10517;SDS011;5307;42.548;22.968;2022-08-20T03:55:46;18.85;;;10.15;;
10517;SDS011;5307;42.548;22.968;2022-08-20T03:58:14;17.50;;;10.50;;
10517;SDS011;5307;42.548;22.968;2022-08-20T04:00:44;16.80;;;10.18;;
10517;SDS011;5307;42.548;22.968;2022-08-20T04:03:13;18.52;;;12.20;;
10517;SDS011;5307;42.548;22.968;2022-08-20T04:05:41;17.00;;;10.05;;
10517;SDS011;5307;42.548;22.968;2022-08-20T04:08:10;12.88;;;10.73;;
10517;SDS011;5307;42.548;22.968;2022-08-20T04:10:40;14.80;;;10.93;;
10517;SDS011;5307;42.548;22.968;2022-08-20T04:13:09;15.00;;;10.05;;
10517;SDS011;5307;42.548;22.968;2022-08-20T04:15:35;25.77;;;11.05;;
10517;SDS011;5307;42.548;22.968;2022-08-20T04:18:04;21.65;;;11.48;;
10517;SDS011;5307;42.548;22.968;2022-08-20T04:20:33;19.52;;;10.95;;
10517;SDS011;5307;42.548;22.968;2022-08-20T04:23:01;16.90;;;11.38;;
10517;SDS011;5307;42.548;22.968;2022-08-20T04:25:30;15.95;;;11.25;;
10517;SDS011;5307;42.548;22.968;2022-08-20T04:27:58;16.77;;;11.35;;
10517;SDS011;5307;42.548;22.968;2022-08-20T04:30:28;17.58;;;11.88;;
10517;SDS011;5307;42.548;22.968;2022-08-20T04:32:57;15.52;;;11.70;;
10517;SDS011;5307;42.548;22.968;2022-08-20T04:35:24;20.60;;;11.38;;
10517;SDS011;5307;42.548;22.968;2022-08-20T04:37:56;18.58;;;10.52;;
10517;SDS011;5307;42.548;22.968;2022-08-20T04:40:23;23.02;;;11.65;;
10517;SDS011;5307;42.548;22.968;2022-08-20T04:43:08;16.70;;;11.35;;
10517;SDS011;5307;42.548;22.968;2022-08-20T04:45:36;17.75;;;12.07;;
10517;SDS011;5307;42.548;22.968;2022-08-20T04:48:03;17.42;;;12.35;;
10517;SDS011;5307;42.548;22.968;2022-08-20T04:50:31;15.32;;;11.27;;
10517;SDS011;5307;42.548;22.968;2022-08-20T04:53:00;17.50;;;11.45;;
10517;SDS011;5307;42.548;22.968;2022-08-20T04:55:27;24.77;;;12.52;;
10517;SDS011;5307;42.548;22.968;2022-08-20T04:57:55;15.13;;;12.32;;
10517;SDS011;5307;42.548;22.968;2022-08-20T05:00:22;21.63;;;11.75;;
10517;SDS011;5307;42.548;22.968;2022-08-20T05:02:50;15.30;;;12.25;;
10517;SDS011;5307;42.548;22.968;2022-08-20T05:05:17;21.95;;;12.80;;
10517;SDS011;5307;42.548;22.968;2022-08-20T05:07:46;15.70;;;12.02;;
10517;SDS011;5307;42.548;22.968;2022-08-20T05:10:16;21.67;;;11.43;;
10517;SDS011;5307;42.548;22.968;2022-08-20T05:12:44;28.85;;;12.60;;
10517;SDS011;5307;42.548;22.968;2022-08-20T05:15:12;17.83;;;12.07;;
10517;SDS011;5307;42.548;22.968;2022-08-20T05:17:39;14.45;;;11.23;;
10517;SDS011;5307;42.548;22.968;2022-08-20T05:20:16;17.45;;;11.20;;
10517;SDS011;5307;42.548;22.968;2022-08-20T05:22:43;16.10;;;12.05;;
10517;SDS011;5307;42.548;22.968;2022-08-20T05:25:10;16.75;;;11.88;;
10517;SDS011;5307;42.548;22.968;2022-08-20T05:27:37;14.52;;;10.55;;
10517;SDS011;5307;42.548;22.968;2022-08-20T05:30:08;22.65;;;11.07;;
10517;SDS011;5307;42.548;22.968;2022-08-20T05:32:37;15.88;;;10.68;;
10517;SDS011;5307;42.548;22.968;2022-08-20T05:35:05;17.73;;;11.25;;
10517;SDS011;5307;42.548;22.968;2022-08-20T05:37:36;17.40;;;11.77;;
10517;SDS011;5307;42.548;22.968;2022-08-20T05:40:06;15.10;;;12.02;;
10517;SDS011;5307;42.548;22.968;2022-08-20T05:42:36;13.38;;;11.73;;
10517;SDS011;5307;42.548;22.968;2022-08-20T05:45:03;19.85;;;10.82;;
10517;SDS011;5307;42.548;22.968;2022-08-20T05:47:31;22.27;;;11.48;;
10517;SDS011;5307;42.548;22.968;2022-08-20T05:49:58;18.95;;;11.10;;
10517;SDS011;5307;42.548;22.968;2022-08-20T05:52:26;12.88;;;10.05;;
10517;SDS011;5307;42.548;22.968;2022-08-20T05:54:56;18.58;;;10.70;;
10517;SDS011;5307;42.548;22.968;2022-08-20T05:57:23;15.48;;;10.35;;
10517;SDS011;5307;42.548;22.968;2022-08-20T05:59:49;20.52;;;10.65;;
10517;SDS011;5307;42.548;22.968;2022-08-20T06:02:17;18.77;;;10.20;;
10517;SDS011;5307;42.548;22.968;2022-08-20T06:05:02;18.10;;;10.57;;
10517;SDS011;5307;42.548;22.968;2022-08-20T06:07:29;16.60;;;10.13;;
10517;SDS011;5307;42.548;22.968;2022-08-20T06:09:57;14.75;;;10.73;;
10517;SDS011;5307;42.548;22.968;2022-08-20T06:12:26;17.33;;;10.38;;
10517;SDS011;5307;42.548;22.968;2022-08-20T06:14:53;21.67;;;10.13;;
10517;SDS011;5307;42.548;22.968;2022-08-20T06:17:20;16.27;;;10.38;;
10517;SDS011;5307;42.548;22.968;2022-08-20T06:19:47;15.73;;;9.90;;
10517;SDS011;5307;42.548;22.968;2022-08-20T06:22:14;16.63;;;10.23;;
10517;SDS011;5307;42.548;22.968;2022-08-20T06:24:41;15.15;;;10.98;;
10517;SDS011;5307;42.548;22.968;2022-08-20T06:27:11;14.75;;;9.82;;
10517;SDS011;5307;42.548;22.968;2022-08-20T06:29:40;17.42;;;9.93;;
10517;SDS011;5307;42.548;22.968;2022-08-20T06:32:07;17.80;;;9.95;;
10517;SDS011;5307;42.548;22.968;2022-08-20T06:34:35;25.13;;;11.10;;
10517;SDS011;5307;42.548;22.968;2022-08-20T06:37:01;19.90;;;10.77;;
10517;SDS011;5307;42.548;22.968;2022-08-20T06:39:41;18.75;;;11.25;;
10517;SDS011;5307;42.548;22.968;2022-08-20T06:42:08;37.80;;;12.25;;
10517;SDS011;5307;42.548;22.968;2022-08-20T06:44:36;13.15;;;10.02;;
10517;SDS011;5307;42.548;22.968;2022-08-20T06:47:03;21.13;;;10.07;;
10517;SDS011;5307;42.548;22.968;2022-08-20T06:49:33;18.48;;;11.45;;
10517;SDS011;5307;42.548;22.968;2022-08-20T06:52:00;11.52;;;9.13;;
10517;SDS011;5307;42.548;22.968;2022-08-20T06:54:27;16.55;;;9.82;;
10517;SDS011;5307;42.548;22.968;2022-08-20T06:56:54;15.55;;;9.93;;
10517;SDS011;5307;42.548;22.968;2022-08-20T06:59:22;16.95;;;9.40;;
10517;SDS011;5307;42.548;22.968;2022-08-20T07:01:49;14.52;;;10.30;;
10517;SDS011;5307;42.548;22.968;2022-08-20T07:04:20;15.23;;;10.52;;
10517;SDS011;5307;42.548;22.968;2022-08-20T07:06:47;16.55;;;10.52;;
10517;SDS011;5307;42.548;22.968;2022-08-20T07:09:15;15.15;;;10.35;;
10517;SDS011;5307;42.548;22.968;2022-08-20T07:11:42;15.25;;;10.00;;
10517;SDS011;5307;42.548;22.968;2022-08-20T07:14:10;16.40;;;10.07;;
10517;SDS011;5307;42.548;22.968;2022-08-20T07:16:38;16.13;;;10.02;;
10517;SDS011;5307;42.548;22.968;2022-08-20T07:19:05;11.88;;;9.30;;
10517;SDS011;5307;42.548;22.968;2022-08-20T07:21:32;26.58;;;9.80;;
10517;SDS011;5307;42.548;22.968;2022-08-20T07:23:59;17.20;;;9.07;;
10517;SDS011;5307;42.548;22.968;2022-08-20T07:26:26;13.60;;;8.68;;
10517;SDS011;5307;42.548;22.968;2022-08-20T07:28:53;12.10;;;8.40;;
10517;SDS011;5307;42.548;22.968;2022-08-20T07:31:20;12.82;;;8.73;;
10517;SDS011;5307;42.548;22.968;2022-08-20T07:34:06;16.05;;;9.23;;
10517;SDS011;5307;42.548;22.968;2022-08-20T07:36:35;13.30;;;8.82;;
10517;SDS011;5307;42.548;22.968;2022-08-20T07:39:02;17.85;;;9.38;;
10517;SDS011;5307;42.548;22.968;2022-08-20T07:41:30;24.45;;;10.55;;
10517;SDS011;5307;42.548;22.968;2022-08-20T07:43:57;17.67;;;9.40;;
10517;SDS011;5307;42.548;22.968;2022-08-20T07:46:24;18.10;;;9.93;;
10517;SDS011;5307;42.548;22.968;2022-08-20T07:48:52;17.90;;;9.07;;
10517;SDS011;5307;42.548;22.968;2022-08-20T07:51:20;20.10;;;9.73;;
10517;SDS011;5307;42.548;22.968;2022-08-20T07:53:48;19.35;;;10.75;;
10517;SDS011;5307;42.548;22.968;2022-08-20T07:56:17;16.33;;;9.32;;
10517;SDS011;5307;42.548;22.968;2022-08-20T07:58:48;20.45;;;9.38;;
10517;SDS011;5307;42.548;22.968;2022-08-20T08:01:16;20.42;;;10.75;;
10517;SDS011;5307;42.548;22.968;2022-08-20T08:03:46;20.50;;;10.18;;
10517;SDS011;5307;42.548;22.968;2022-08-20T08:06:13;16.55;;;9.77;;
10517;SDS011;5307;42.548;22.968;2022-08-20T08:08:41;19.48;;;9.55;;
10517;SDS011;5307;42.548;22.968;2022-08-20T08:11:08;19.08;;;9.40;;
10517;SDS011;5307;42.548;22.968;2022-08-20T08:13:37;18.50;;;9.50;;
10517;SDS011;5307;42.548;22.968;2022-08-20T08:16:07;19.50;;;10.32;;
10517;SDS011;5307;42.548;22.968;2022-08-20T08:18:36;17.15;;;9.50;;
10517;SDS011;5307;42.548;22.968;2022-08-20T08:21:06;31.40;;;10.05;;
10517;SDS011;5307;42.548;22.968;2022-08-20T08:23:37;23.85;;;9.65;;
10517;SDS011;5307;42.548;22.968;2022-08-20T08:26:10;19.35;;;9.82;;
10517;SDS011;5307;42.548;22.968;2022-08-20T08:28:38;16.85;;;9.75;;
10517;SDS011;5307;42.548;22.968;2022-08-20T08:31:06;21.63;;;10.80;;
10517;SDS011;5307;42.548;22.968;2022-08-20T08:33:33;16.85;;;9.77;;
10517;SDS011;5307;42.548;22.968;2022-08-20T08:36:02;20.02;;;9.93;;
10517;SDS011;5307;42.548;22.968;2022-08-20T08:38:30;22.35;;;10.60;;
10517;SDS011;5307;42.548;22.968;2022-08-20T08:41:01;27.40;;;10.43;;
10517;SDS011;5307;42.548;22.968;2022-08-20T08:43:34;18.48;;;10.05;;
10517;SDS011;5307;42.548;22.968;2022-08-20T08:46:02;22.40;;;10.63;;
10517;SDS011;5307;42.548;22.968;2022-08-20T08:48:33;20.13;;;10.80;;
10517;SDS011;5307;42.548;22.968;2022-08-20T08:51:02;34.67;;;11.50;;
10517;SDS011;5307;42.548;22.968;2022-08-20T08:53:37;22.48;;;10.00;;
10517;SDS011;5307;42.548;22.968;2022-08-20T08:56:07;29.58;;;10.93;;
10517;SDS011;5307;42.548;22.968;2022-08-20T08:58:36;34.25;;;10.00;;
10517;SDS011;5307;42.548;22.968;2022-08-20T09:01:07;21.38;;;9.98;;
10517;SDS011;5307;42.548;22.968;2022-08-20T09:03:37;24.02;;;10.27;;
10517;SDS011;5307;42.548;22.968;2022-08-20T09:06:08;18.48;;;9.95;;
10517;SDS011;5307;42.548;22.968;2022-08-20T09:08:40;15.65;;;8.30;;
10517;SDS011;5307;42.548;22.968;2022-08-20T09:11:12;16.38;;;8.40;;
10517;SDS011;5307;42.548;22.968;2022-08-20T09:13:42;25.35;;;9.18;;
10517;SDS011;5307;42.548;22.968;2022-08-20T09:16:09;14.38;;;8.75;;
10517;SDS011;5307;42.548;22.968;2022-08-20T09:18:36;17.45;;;7.80;;
10517;SDS011;5307;42.548;22.968;2022-08-20T09:21:03;17.10;;;8.88;;
10517;SDS011;5307;42.548;22.968;2022-08-20T09:23:30;17.67;;;8.93;;
10517;SDS011;5307;42.548;22.968;2022-08-20T09:25:57;17.02;;;9.23;;
10517;SDS011;5307;42.548;22.968;2022-08-20T09:28:24;18.50;;;8.45;;
10517;SDS011;5307;42.548;22.968;2022-08-20T09:30:52;13.57;;;8.77;;
10517;SDS011;5307;42.548;22.968;2022-08-20T09:33:20;15.95;;;8.90;;
10517;SDS011;5307;42.548;22.968;2022-08-20T09:35:47;18.08;;;8.85;;
10517;SDS011;5307;42.548;22.968;2022-08-20T09:38:14;10.55;;;8.27;;
10517;SDS011;5307;42.548;22.968;2022-08-20T09:40:42;13.18;;;7.80;;
10517;SDS011;5307;42.548;22.968;2022-08-20T09:43:09;12.63;;;7.97;;
10517;SDS011;5307;42.548;22.968;2022-08-20T09:45:36;18.40;;;8.45;;
10517;SDS011;5307;42.548;22.968;2022-08-20T09:48:05;16.52;;;10.60;;
10517;SDS011;5307;42.548;22.968;2022-08-20T09:50:33;13.02;;;8.88;;
10517;SDS011;5307;42.548;22.968;2022-08-20T09:53:01;21.70;;;9.10;;
10517;SDS011;5307;42.548;22.968;2022-08-20T09:55:37;17.48;;;8.98;;
10517;SDS011;5307;42.548;22.968;2022-08-20T09:58:06;11.30;;;8.48;;
10517;SDS011;5307;42.548;22.968;2022-08-20T10:00:38;9.45;;;7.50;;
10517;SDS011;5307;42.548;22.968;2022-08-20T10:03:08;11.38;;;7.55;;
10517;SDS011;5307;42.548;22.968;2022-08-20T10:05:34;12.73;;;7.35;;
10517;SDS011;5307;42.548;22.968;2022-08-20T10:08:03;10.68;;;7.32;;
10517;SDS011;5307;42.548;22.968;2022-08-20T10:10:30;11.45;;;7.28;;
10517;SDS011;5307;42.548;22.968;2022-08-20T10:12:59;17.08;;;8.10;;
10517;SDS011;5307;42.548;22.968;2022-08-20T10:15:26;12.20;;;7.55;;
10517;SDS011;5307;42.548;22.968;2022-08-20T10:17:53;14.00;;;8.15;;
10517;SDS011;5307;42.548;22.968;2022-08-20T10:20:24;10.20;;;7.22;;
10517;SDS011;5307;42.548;22.968;2022-08-20T10:22:51;12.95;;;7.55;;
10517;SDS011;5307;42.548;22.968;2022-08-20T10:25:18;11.60;;;7.28;;
10517;SDS011;5307;42.548;22.968;2022-08-20T10:27:44;17.77;;;8.45;;
10517;SDS011;5307;42.548;22.968;2022-08-20T10:30:11;28.27;;;8.68;;
10517;SDS011;5307;42.548;22.968;2022-08-20T10:32:38;14.35;;;7.65;;
10517;SDS011;5307;42.548;22.968;2022-08-20T10:35:06;13.75;;;8.52;;
10517;SDS011;5307;42.548;22.968;2022-08-20T10:37:35;13.65;;;8.10;;
10517;SDS011;5307;42.548;22.968;2022-08-20T10:40:03;14.27;;;8.40;;
10517;SDS011;5307;42.548;22.968;2022-08-20T10:42:31;10.23;;;7.70;;
10517;SDS011;5307;42.548;22.968;2022-08-20T10:44:58;13.75;;;8.18;;
10517;SDS011;5307;42.548;22.968;2022-08-20T10:47:26;11.27;;;7.88;;
10517;SDS011;5307;42.548;22.968;2022-08-20T10:49:55;14.38;;;8.13;;
10517;SDS011;5307;42.548;22.968;2022-08-20T10:52:24;16.65;;;9.00;;
10517;SDS011;5307;42.548;22.968;2022-08-20T10:54:53;13.88;;;8.02;;
10517;SDS011;5307;42.548;22.968;2022-08-20T10:57:21;13.50;;;7.30;;
10517;SDS011;5307;42.548;22.968;2022-08-20T10:59:51;17.02;;;7.90;;
10517;SDS011;5307;42.548;22.968;2022-08-20T11:02:20;14.93;;;9.07;;
10517;SDS011;5307;42.548;22.968;2022-08-20T11:04:47;10.40;;;7.57;;
10517;SDS011;5307;42.548;22.968;2022-08-20T11:07:16;10.10;;;7.53;;
10517;SDS011;5307;42.548;22.968;2022-08-20T11:09:45;10.32;;;8.10;;
10517;SDS011;5307;42.548;22.968;2022-08-20T11:12:14;14.32;;;8.32;;
10517;SDS011;5307;42.548;22.968;2022-08-20T11:14:42;14.25;;;7.80;;
10517;SDS011;5307;42.548;22.968;2022-08-20T11:17:10;17.60;;;7.63;;
10517;SDS011;5307;42.548;22.968;2022-08-20T11:19:38;10.18;;;7.78;;
10517;SDS011;5307;42.548;22.968;2022-08-20T11:22:06;11.55;;;7.75;;
10517;SDS011;5307;42.548;22.968;2022-08-20T11:24:33;13.50;;;8.05;;
10517;SDS011;5307;42.548;22.968;2022-08-20T11:27:00;11.27;;;8.05;;
10517;SDS011;5307;42.548;22.968;2022-08-20T11:29:29;13.15;;;7.85;;
10517;SDS011;5307;42.548;22.968;2022-08-20T11:31:56;15.13;;;7.90;;
10517;SDS011;5307;42.548;22.968;2022-08-20T11:34:23;13.90;;;8.10;;
10517;SDS011;5307;42.548;22.968;2022-08-20T11:36:50;14.38;;;7.75;;
10517;SDS011;5307;42.548;22.968;2022-08-20T11:39:18;11.57;;;7.78;;
10517;SDS011;5307;42.548;22.968;2022-08-20T11:41:44;10.82;;;7.18;;
10517;SDS011;5307;42.548;22.968;2022-08-20T11:44:11;12.55;;;9.48;;
10517;SDS011;5307;42.548;22.968;2022-08-20T11:46:39;13.95;;;7.90;;
10517;SDS011;5307;42.548;22.968;2022-08-20T11:49:06;14.45;;;8.20;;
10517;SDS011;5307;42.548;22.968;2022-08-20T11:51:33;30.30;;;10.07;;
10517;SDS011;5307;42.548;22.968;2022-08-20T11:54:01;33.17;;;10.52;;
10517;SDS011;5307;42.548;22.968;2022-08-20T11:56:28;31.05;;;11.10;;
10517;SDS011;5307;42.548;22.968;2022-08-20T11:58:55;29.63;;;13.35;;
10517;SDS011;5307;42.548;22.968;2022-08-20T12:01:22;25.00;;;11.45;;
10517;SDS011;5307;42.548;22.968;2022-08-20T12:03:51;21.05;;;11.07;;
10517;SDS011;5307;42.548;22.968;2022-08-20T12:06:17;14.85;;;9.82;;
10517;SDS011;5307;42.548;22.968;2022-08-20T12:08:44;19.23;;;9.93;;
10517;SDS011;5307;42.548;22.968;2022-08-20T12:11:11;19.05;;;10.77;;
10517;SDS011;5307;42.548;22.968;2022-08-20T12:13:38;10.88;;;8.63;;
10517;SDS011;5307;42.548;22.968;2022-08-20T12:16:05;12.65;;;9.13;;
10517;SDS011;5307;42.548;22.968;2022-08-20T12:18:33;12.10;;;9.45;;
10517;SDS011;5307;42.548;22.968;2022-08-20T12:21:01;10.80;;;8.98;;
10517;SDS011;5307;42.548;22.968;2022-08-20T12:23:28;12.50;;;9.30;;
10517;SDS011;5307;42.548;22.968;2022-08-20T12:25:55;15.15;;;8.95;;
10517;SDS011;5307;42.548;22.968;2022-08-20T12:28:21;12.07;;;9.18;;
10517;SDS011;5307;42.548;22.968;2022-08-20T12:30:49;14.05;;;9.18;;
10517;SDS011;5307;42.548;22.968;2022-08-20T12:33:16;13.90;;;10.48;;
10517;SDS011;5307;42.548;22.968;2022-08-20T12:35:42;15.35;;;10.02;;
10517;SDS011;5307;42.548;22.968;2022-08-20T12:38:11;14.50;;;9.60;;
10517;SDS011;5307;42.548;22.968;2022-08-20T12:40:38;15.70;;;9.48;;
10517;SDS011;5307;42.548;22.968;2022-08-20T12:43:05;13.80;;;8.82;;
10517;SDS011;5307;42.548;22.968;2022-08-20T12:45:33;11.95;;;8.98;;
10517;SDS011;5307;42.548;22.968;2022-08-20T12:48:01;12.10;;;9.23;;
10517;SDS011;5307;42.548;22.968;2022-08-20T12:50:30;14.07;;;9.38;;
10517;SDS011;5307;42.548;22.968;2022-08-20T12:52:58;15.50;;;9.25;;
10517;SDS011;5307;42.548;22.968;2022-08-20T12:55:27;14.50;;;9.48;;
10517;SDS011;5307;42.548;22.968;2022-08-20T12:57:56;14.13;;;9.20;;
10517;SDS011;5307;42.548;22.968;2022-08-20T13:00:25;18.75;;;10.02;;
10517;SDS011;5307;42.548;22.968;2022-08-20T13:02:55;14.32;;;9.02;;
10517;SDS011;5307;42.548;22.968;2022-08-20T13:05:23;12.75;;;9.40;;
10517;SDS011;5307;42.548;22.968;2022-08-20T13:07:51;12.07;;;9.45;;
10517;SDS011;5307;42.548;22.968;2022-08-20T13:10:19;15.98;;;9.25;;
10517;SDS011;5307;42.548;22.968;2022-08-20T13:12:50;16.65;;;9.98;;
10517;SDS011;5307;42.548;22.968;2022-08-20T13:15:17;12.15;;;9.00;;
10517;SDS011;5307;42.548;22.968;2022-08-20T13:17:49;14.77;;;9.35;;
10517;SDS011;5307;42.548;22.968;2022-08-20T13:20:16;13.40;;;7.60;;
10517;SDS011;5307;42.548;22.968;2022-08-20T13:22:43;12.75;;;8.90;;
10517;SDS011;5307;42.548;22.968;2022-08-20T13:25:10;11.43;;;8.93;;
10517;SDS011;5307;42.548;22.968;2022-08-20T13:27:38;16.70;;;9.88;;
10517;SDS011;5307;42.548;22.968;2022-08-20T13:30:08;13.52;;;10.98;;
10517;SDS011;5307;42.548;22.968;2022-08-20T13:32:38;11.65;;;9.50;;
10517;SDS011;5307;42.548;22.968;2022-08-20T13:35:06;21.08;;;11.18;;
10517;SDS011;5307;42.548;22.968;2022-08-20T13:37:33;15.60;;;10.43;;
10517;SDS011;5307;42.548;22.968;2022-08-20T13:40:00;14.60;;;9.88;;
10517;SDS011;5307;42.548;22.968;2022-08-20T13:42:28;16.05;;;10.27;;
10517;SDS011;5307;42.548;22.968;2022-08-20T13:44:54;15.05;;;8.80;;
10517;SDS011;5307;42.548;22.968;2022-08-20T13:47:23;14.40;;;9.00;;
10517;SDS011;5307;42.548;22.968;2022-08-20T13:49:55;12.98;;;9.68;;
10517;SDS011;5307;42.548;22.968;2022-08-20T13:52:24;15.07;;;9.48;;
10517;SDS011;5307;42.548;22.968;2022-08-20T13:54:52;15.30;;;9.70;;
10517;SDS011;5307;42.548;22.968;2022-08-20T13:57:19;17.38;;;10.73;;
10517;SDS011;5307;42.548;22.968;2022-08-20T13:59:49;11.57;;;7.68;;
10517;SDS011;5307;42.548;22.968;2022-08-20T14:02:17;14.90;;;10.45;;
10517;SDS011;5307;42.548;22.968;2022-08-20T14:04:47;13.32;;;9.82;;
10517;SDS011;5307;42.548;22.968;2022-08-20T14:07:17;15.65;;;10.88;;
10517;SDS011;5307;42.548;22.968;2022-08-20T14:09:47;12.55;;;9.10;;
10517;SDS011;5307;42.548;22.968;2022-08-20T14:12:18;14.40;;;8.82;;
10517;SDS011;5307;42.548;22.968;2022-08-20T14:14:46;18.75;;;8.43;;
10517;SDS011;5307;42.548;22.968;2022-08-20T14:17:14;10.32;;;6.22;;
10517;SDS011;5307;42.548;22.968;2022-08-20T14:19:44;16.15;;;6.18;;
10517;SDS011;5307;42.548;22.968;2022-08-20T14:22:13;12.70;;;7.60;;
10517;SDS011;5307;42.548;22.968;2022-08-20T14:24:41;13.65;;;7.15;;
10517;SDS011;5307;42.548;22.968;2022-08-20T14:27:09;16.27;;;7.72;;
10517;SDS011;5307;42.548;22.968;2022-08-20T14:29:37;20.85;;;7.70;;
10517;SDS011;5307;42.548;22.968;2022-08-20T14:32:05;15.90;;;7.20;;
10517;SDS011;5307;42.548;22.968;2022-08-20T14:34:32;20.33;;;8.80;;
10517;SDS011;5307;42.548;22.968;2022-08-20T14:37:08;14.10;;;6.53;;
10517;SDS011;5307;42.548;22.968;2022-08-20T14:39:37;17.23;;;7.65;;
10517;SDS011;5307;42.548;22.968;2022-08-20T14:42:06;17.48;;;9.52;;